createdAt,value
2023-02-01T00:01:10.753Z,42.42
2023-02-01T00:03:38.275Z,41.65
2023-02-01T00:06:05.831Z,45.38
2023-02-01T00:08:33.421Z,44.90
2023-02-01T00:11:06.332Z,41.28
2023-02-01T00:13:36.300Z,42.20
2023-02-01T00:16:13.318Z,41.47
2023-02-01T00:18:40.807Z,39.05
2023-02-01T00:21:08.193Z,38.58
2023-02-01T00:23:37.201Z,40.58
2023-02-01T00:26:07.138Z,39.45
2023-02-01T00:28:35.100Z,37.72
2023-02-01T00:31:05.372Z,38.10
2023-02-01T00:33:33.796Z,35.17
2023-02-01T00:36:04.400Z,37.95
2023-02-01T00:38:33.036Z,34.90
2023-02-01T00:41:08.632Z,36.97
2023-02-01T00:43:36.167Z,35.28
2023-02-01T00:46:04.669Z,34.05
2023-02-01T00:48:32.401Z,33.72
2023-02-01T00:51:13.409Z,35.88
2023-02-01T00:53:41.423Z,34.60
2023-02-01T00:56:09.448Z,33.17
2023-02-01T00:58:37.347Z,34.20
2023-02-01T01:01:09.123Z,35.35
2023-02-01T01:03:39.469Z,33.15
2023-02-01T01:06:17.695Z,34.13
2023-02-01T01:08:45.426Z,33.45
2023-02-01T01:11:17.005Z,34.25
2023-02-01T01:13:47.529Z,33.17
2023-02-01T01:16:16.035Z,33.42
2023-02-01T01:18:43.868Z,33.88
2023-02-01T01:21:14.783Z,32.25
2023-02-01T01:23:42.627Z,33.42
2023-02-01T01:26:13.520Z,31.88
2023-02-01T01:28:41.048Z,31.85
2023-02-01T01:31:12.612Z,32.45
2023-02-01T01:33:40.356Z,33.60
2023-02-01T01:36:12.807Z,32.97
2023-02-01T01:41:10.320Z,32.05
2023-02-01T01:43:58.573Z,32.88
2023-02-01T01:46:33.971Z,35.35
2023-02-01T01:49:25.055Z,35.88
2023-02-01T01:51:56.833Z,34.25
2023-02-01T01:54:27.156Z,32.72
2023-02-01T01:57:07.478Z,33.20
2023-02-01T01:59:38.052Z,33.75
2023-02-01T02:02:06.112Z,35.80
2023-02-01T02:04:35.265Z,37.22
2023-02-01T02:07:28.003Z,36.25
2023-02-01T02:10:00.864Z,37.83
2023-02-01T02:12:29.616Z,39.05
2023-02-01T02:14:57.499Z,40.20
2023-02-01T02:17:58.217Z,38.92
2023-02-01T02:21:09.998Z,40.42
2023-02-01T02:24:02.010Z,29.38
2023-02-01T02:29:25.702Z,38.05
2023-02-01T02:32:05.031Z,40.67
2023-02-01T02:34:47.651Z,41.03
2023-02-01T02:37:34.715Z,41.97
2023-02-01T02:40:07.646Z,43.70
2023-02-01T02:43:13.573Z,40.53
2023-02-01T02:46:07.446Z,38.40
2023-02-01T02:48:43.639Z,40.97
2023-02-01T02:51:44.255Z,41.45
2023-02-01T02:54:33.808Z,40.67
2023-02-01T02:57:23.599Z,40.78
2023-02-01T03:00:10.605Z,40.80
2023-02-01T03:02:57.124Z,39.90
2023-02-01T03:05:24.785Z,41.30
2023-02-01T03:08:02.894Z,41.80
2023-02-01T03:10:50.959Z,41.58
2023-02-01T03:13:43.012Z,40.95
2023-02-01T03:16:32.488Z,41.63
2023-02-01T03:19:50.540Z,39.83
2023-02-01T03:22:23.060Z,38.70
2023-02-01T03:25:19.496Z,40.60
2023-02-01T03:28:01.058Z,38.22
2023-02-01T03:30:34.420Z,37.63
2023-02-01T03:33:08.354Z,37.88
2023-02-01T03:35:58.864Z,39.35
2023-02-01T03:38:35.516Z,37.50
2023-02-01T03:41:41.430Z,36.45
2023-02-01T03:44:17.723Z,36.90
2023-02-01T03:47:06.042Z,38.63
2023-02-01T03:49:41.599Z,37.90
2023-02-01T03:52:15.556Z,36.55
2023-02-01T03:54:45.949Z,36.47
2023-02-01T03:57:17.970Z,37.78
2023-02-01T03:59:46.674Z,38.50
2023-02-01T04:02:14.487Z,36.08
2023-02-01T04:04:42.145Z,37.28
2023-02-01T04:07:10.166Z,36.35
2023-02-01T04:09:37.697Z,35.47
2023-02-01T04:12:05.461Z,37.22
2023-02-01T04:14:32.900Z,36.85
2023-02-01T04:17:00.387Z,40.45
2023-02-01T04:19:27.860Z,40.95
2023-02-01T04:21:55.342Z,39.97
2023-02-01T04:24:22.869Z,37.75
2023-02-01T04:26:50.453Z,39.83
2023-02-01T04:29:17.988Z,36.15
2023-02-01T04:31:45.468Z,41.22
2023-02-01T04:34:13.162Z,38.03
2023-02-01T04:36:40.666Z,34.75
2023-02-01T04:39:09.726Z,35.38
2023-02-01T04:41:37.392Z,34.55
2023-02-01T04:44:05.074Z,35.67
2023-02-01T04:46:32.547Z,37.05
2023-02-01T04:49:00.171Z,38.95
2023-02-01T04:51:27.665Z,34.30
2023-02-01T04:53:56.853Z,35.72
2023-02-01T04:56:24.327Z,37.05
2023-02-01T04:58:51.751Z,36.58
2023-02-01T05:01:19.314Z,37.05
2023-02-01T05:03:46.941Z,37.97
2023-02-01T05:06:14.419Z,36.55
2023-02-01T05:08:41.839Z,36.58
2023-02-01T05:11:29.318Z,36.08
2023-02-01T05:13:56.952Z,35.63
2023-02-01T05:16:24.737Z,35.63
2023-02-01T05:18:52.511Z,39.17
2023-02-01T05:21:20.248Z,40.33
2023-02-01T05:24:06.247Z,40.03
2023-02-01T05:26:34.715Z,38.97
2023-02-01T05:29:02.272Z,38.47
2023-02-01T05:31:30.166Z,36.92
2023-02-01T05:33:57.769Z,36.17
2023-02-01T05:36:25.506Z,33.95
2023-02-01T05:38:52.986Z,34.45
2023-02-01T05:41:20.502Z,34.90
2023-02-01T05:43:47.950Z,33.78
2023-02-01T05:46:15.757Z,34.45
2023-02-01T05:48:43.950Z,36.20
2023-02-01T05:51:12.363Z,35.05
2023-02-01T05:53:40.037Z,34.45
2023-02-01T05:56:08.069Z,36.13
2023-02-01T05:58:35.582Z,36.63
2023-02-01T06:01:04.071Z,41.10
2023-02-01T06:03:31.754Z,36.38
2023-02-01T06:05:59.345Z,35.55
2023-02-01T06:08:26.846Z,40.90
2023-02-01T06:11:02.838Z,42.55
2023-02-01T06:13:32.136Z,40.50
2023-02-01T06:16:06.919Z,41.53
2023-02-01T06:18:35.854Z,41.10
2023-02-01T06:21:03.969Z,37.80
2023-02-01T06:23:31.870Z,37.90
2023-02-01T06:26:05.334Z,36.20
2023-02-01T06:28:33.887Z,36.05
2023-02-01T06:31:07.704Z,37.97
2023-02-01T06:33:36.472Z,33.60
2023-02-01T06:36:07.528Z,34.45
2023-02-01T06:38:36.172Z,36.60
2023-02-01T06:41:04.895Z,35.53
2023-02-01T06:43:33.673Z,36.58
2023-02-01T06:46:06.340Z,37.58
2023-02-01T06:48:34.482Z,41.60
2023-02-01T06:51:02.307Z,47.88
2023-02-01T06:53:29.848Z,42.22
2023-02-01T06:56:02.514Z,42.60
2023-02-01T06:58:34.487Z,41.08
2023-02-01T07:01:10.018Z,41.38
2023-02-01T07:03:38.360Z,40.22
2023-02-01T07:06:06.981Z,38.35
2023-02-01T07:08:37.322Z,35.67
2023-02-01T07:11:10.311Z,34.50
2023-02-01T07:13:38.483Z,36.47
2023-02-01T07:16:10.107Z,39.35
2023-02-01T07:18:38.003Z,39.22
2023-02-01T07:21:05.729Z,37.53
2023-02-01T07:23:33.398Z,38.75
2023-02-01T07:26:04.247Z,39.70
2023-02-01T07:28:34.388Z,37.38
2023-02-01T07:31:06.878Z,37.08
2023-02-01T07:33:35.219Z,34.70
2023-02-01T07:36:05.397Z,34.70
2023-02-01T07:38:32.960Z,33.88
2023-02-01T07:41:02.024Z,34.08
2023-02-01T07:43:30.217Z,34.67
2023-02-01T07:45:58.459Z,36.08
2023-02-01T07:48:27.083Z,38.78
2023-02-01T07:51:03.117Z,36.33
2023-02-01T07:53:32.276Z,33.30
2023-02-01T07:56:00.058Z,35.55
2023-02-01T07:58:28.863Z,34.42
2023-02-01T08:01:15.922Z,36.05
2023-02-01T08:03:43.510Z,34.38
2023-02-01T08:06:11.361Z,35.88
2023-02-01T08:08:39.176Z,36.72
2023-02-01T08:11:07.856Z,34.97
2023-02-01T08:13:36.358Z,34.33
2023-02-01T08:16:06.422Z,39.80
2023-02-01T08:18:34.533Z,39.53
2023-02-01T08:21:14.650Z,37.90
2023-02-01T08:23:43.413Z,39.30
2023-02-01T08:26:15.860Z,42.45
2023-02-01T08:28:47.302Z,42.97
2023-02-01T08:31:16.762Z,41.97
2023-02-01T08:33:48.507Z,43.67
2023-02-01T08:36:15.950Z,47.88
2023-02-01T08:38:43.451Z,47.13
2023-02-01T08:41:16.200Z,50.15
2023-02-01T08:43:43.703Z,48.22
2023-02-01T08:46:12.341Z,52.15
2023-02-01T08:48:40.321Z,47.85
2023-02-01T08:51:11.103Z,44.05
2023-02-01T08:53:41.219Z,45.80
2023-02-01T08:56:09.826Z,45.10
2023-02-01T08:58:37.616Z,47.28
2023-02-01T09:01:10.166Z,44.30
2023-02-01T09:03:38.101Z,48.90
2023-02-01T09:06:08.482Z,49.47
2023-02-01T09:08:37.699Z,46.53
2023-02-01T09:11:08.338Z,47.97
2023-02-01T09:13:36.613Z,50.38
2023-02-01T09:16:05.166Z,46.90
2023-02-01T09:18:32.783Z,50.33
2023-02-01T09:21:02.323Z,49.13
2023-02-01T09:23:29.993Z,52.28
2023-02-01T09:26:04.647Z,53.08
2023-02-01T09:28:32.407Z,51.00
2023-02-01T09:31:01.536Z,53.17
2023-02-01T09:33:30.122Z,52.78
2023-02-01T09:36:02.806Z,52.08
2023-02-01T09:38:31.068Z,52.40
2023-02-01T09:41:00.142Z,51.85
2023-02-01T09:43:40.873Z,52.92
2023-02-01T09:46:11.143Z,58.95
2023-02-01T09:48:41.851Z,56.70
2023-02-01T09:51:17.995Z,57.50
2023-02-01T09:54:08.269Z,53.72
2023-02-01T09:56:43.253Z,55.25
2023-02-01T09:59:47.262Z,55.28
2023-02-01T10:02:29.196Z,58.13
2023-02-01T10:05:00.523Z,61.97
2023-02-01T10:07:28.003Z,61.33
2023-02-01T10:10:05.935Z,59.25
2023-02-01T10:13:03.584Z,60.28
2023-02-01T10:16:05.441Z,62.38
2023-02-01T10:19:04.049Z,64.43
2023-02-01T10:21:59.046Z,66.15
2023-02-01T10:24:42.426Z,66.32
2023-02-01T10:27:15.756Z,67.43
2023-02-01T10:29:52.688Z,68.10
2023-02-01T10:32:29.673Z,65.32
2023-02-01T10:35:16.713Z,66.07
2023-02-01T10:37:48.967Z,63.28
2023-02-01T10:40:22.893Z,64.50
2023-02-01T10:42:53.199Z,66.15
2023-02-01T10:45:23.835Z,66.95
2023-02-01T10:47:53.312Z,67.45
2023-02-01T10:50:47.488Z,66.65
2023-02-01T10:53:25.075Z,67.75
2023-02-01T10:55:56.748Z,62.55
2023-02-01T10:58:30.374Z,63.65
2023-02-01T11:01:07.275Z,67.35
2023-02-01T11:03:45.051Z,67.18
2023-02-01T11:06:26.854Z,65.82
2023-02-01T11:09:09.521Z,66.05
2023-02-01T11:11:58.399Z,66.95
2023-02-01T11:14:25.895Z,68.30
2023-02-01T11:17:00.965Z,66.47
2023-02-01T11:19:29.557Z,64.93
2023-02-01T11:22:01.975Z,62.72
2023-02-01T11:24:36.529Z,60.63
2023-02-01T11:27:07.192Z,63.53
2023-02-01T11:29:41.933Z,63.67
2023-02-01T11:32:11.270Z,65.07
2023-02-01T11:34:46.881Z,63.17
2023-02-01T11:37:24.912Z,64.45
2023-02-01T11:40:27.599Z,63.17
2023-02-01T11:45:38.632Z,60.65
2023-02-01T11:48:26.203Z,64.10
2023-02-01T11:51:12.336Z,65.93
2023-02-01T11:54:17.419Z,61.85
2023-02-01T11:57:06.052Z,58.67
2023-02-01T11:59:56.350Z,60.72
2023-02-01T12:02:46.924Z,43.73
2023-02-01T12:05:42.926Z,60.70
2023-02-01T12:08:22.586Z,60.30
2023-02-01T12:10:58.953Z,58.45
2023-02-01T12:13:54.177Z,60.65
2023-02-01T12:17:14.948Z,58.47
2023-02-01T12:20:01.077Z,58.85
2023-02-01T12:22:59.740Z,60.65
2023-02-01T12:25:47.331Z,58.35
2023-02-01T12:28:25.702Z,57.53
2023-02-01T12:31:06.162Z,61.55
2023-02-01T12:33:52.472Z,60.85
2023-02-01T12:36:41.546Z,57.90
2023-02-01T12:39:24.668Z,55.95
2023-02-01T12:41:58.400Z,58.15
2023-02-01T12:44:32.419Z,60.10
2023-02-01T12:47:09.212Z,60.58
2023-02-01T12:49:47.537Z,59.08
2023-02-01T12:52:45.554Z,59.88
2023-02-01T12:55:36.522Z,59.22
2023-02-01T12:58:45.318Z,59.67
2023-02-01T13:01:21.898Z,60.80
2023-02-01T13:03:58.702Z,60.95
2023-02-01T13:06:32.289Z,64.45
2023-02-01T13:09:29.023Z,60.80
2023-02-01T13:12:02.241Z,60.03
2023-02-01T13:14:56.156Z,59.20
2023-02-01T13:17:26.184Z,61.83
2023-02-01T13:20:16.554Z,59.25
2023-02-01T13:22:52.869Z,61.20
2023-02-01T13:25:38.508Z,60.92
2023-02-01T13:28:13.791Z,59.22
2023-02-01T13:30:58.456Z,61.05
2023-02-01T13:33:56.275Z,61.10
2023-02-01T13:36:53.590Z,61.25
2023-02-01T13:39:38.942Z,60.00
2023-02-01T13:42:13.068Z,60.13
2023-02-01T13:44:45.164Z,61.88
2023-02-01T13:47:39.501Z,58.35
2023-02-01T13:50:25.796Z,59.85
2023-02-01T13:52:57.740Z,57.88
2023-02-01T13:55:37.280Z,57.67
2023-02-01T13:58:14.556Z,55.80
2023-02-01T14:00:46.658Z,56.28
2023-02-01T14:03:20.265Z,56.50
2023-02-01T14:05:48.106Z,56.85
2023-02-01T14:08:24.151Z,56.45
2023-02-01T14:10:59.248Z,55.47
2023-02-01T14:13:37.193Z,58.17
2023-02-01T14:16:04.741Z,56.72
2023-02-01T14:18:38.389Z,58.53
2023-02-01T14:21:31.027Z,56.13
2023-02-01T14:26:45.297Z,54.05
2023-02-01T14:29:26.415Z,55.47
2023-02-01T14:32:19.025Z,57.63
2023-02-01T14:37:21.901Z,54.83
2023-02-01T14:42:48.448Z,57.08
2023-02-01T14:45:25.443Z,56.33
2023-02-01T14:48:08.566Z,57.70
2023-02-01T14:50:43.661Z,66.07
2023-02-01T14:53:11.307Z,57.17
2023-02-01T14:55:52.325Z,62.88
2023-02-01T14:58:41.641Z,58.58
2023-02-01T15:01:32.007Z,59.33
2023-02-01T15:04:17.903Z,59.72
2023-02-01T15:07:08.362Z,57.97
2023-02-01T15:09:48.611Z,56.53
2023-02-01T15:12:28.715Z,57.30
2023-02-01T15:15:25.393Z,56.72
2023-02-01T15:18:03.066Z,59.15
2023-02-01T15:20:32.964Z,57.72
2023-02-01T15:23:08.725Z,59.75
2023-02-01T15:25:40.295Z,76.22
2023-02-01T15:28:14.843Z,74.32
2023-02-01T15:30:57.553Z,72.93
2023-02-01T15:33:27.243Z,65.32
2023-02-01T15:36:06.974Z,58.75
2023-02-01T15:38:38.369Z,61.15
2023-02-01T15:41:09.051Z,66.22
2023-02-01T15:43:47.509Z,61.33
2023-02-01T15:46:18.802Z,61.20
2023-02-01T15:48:50.079Z,62.53
2023-02-01T15:51:24.012Z,59.35
2023-02-01T15:53:56.600Z,59.00
2023-02-01T15:56:30.662Z,59.25
2023-02-01T15:59:03.534Z,59.97
2023-02-01T16:01:31.594Z,58.63
2023-02-01T16:04:24.742Z,61.20
2023-02-01T16:06:56.356Z,60.47
2023-02-01T16:09:35.948Z,59.83
2023-02-01T16:12:05.048Z,57.97
2023-02-01T16:14:33.426Z,54.53
2023-02-01T16:17:00.983Z,57.47
2023-02-01T16:19:29.457Z,57.92
2023-02-01T16:21:57.625Z,57.65
2023-02-01T16:24:27.066Z,60.55
2023-02-01T16:26:54.851Z,58.65
2023-02-01T16:29:22.704Z,58.47
2023-02-01T16:31:50.873Z,54.80
2023-02-01T16:34:19.209Z,52.08
2023-02-01T16:36:56.654Z,55.65
2023-02-01T16:39:25.230Z,53.90
2023-02-01T16:41:52.654Z,53.15
2023-02-01T16:44:20.525Z,57.30
2023-02-01T16:46:49.575Z,66.00
2023-02-01T16:49:26.658Z,69.88
2023-02-01T16:51:58.612Z,64.90
2023-02-01T16:54:27.608Z,56.80
2023-02-01T16:56:55.321Z,55.67
2023-02-01T16:59:22.786Z,57.40
2023-02-01T17:01:50.325Z,64.40
2023-02-01T17:04:18.514Z,63.42
2023-02-01T17:06:48.328Z,63.13
2023-02-01T17:09:15.999Z,59.33
2023-02-01T17:11:43.578Z,60.10
2023-02-01T17:14:19.987Z,57.17
2023-02-01T17:16:50.201Z,55.80
2023-02-01T17:19:24.283Z,57.67
2023-02-01T17:21:56.576Z,68.03
2023-02-01T17:24:35.777Z,58.28
2023-02-01T17:27:06.777Z,61.42
2023-02-01T17:29:34.224Z,61.97
2023-02-01T17:32:04.376Z,64.72
2023-02-01T17:34:33.093Z,60.70
2023-02-01T17:37:00.534Z,60.63
2023-02-01T17:39:46.699Z,58.20
2023-02-01T17:42:14.136Z,58.08
2023-02-01T17:44:41.603Z,64.80
2023-02-01T17:47:09.086Z,62.13
2023-02-01T17:49:38.930Z,59.53
2023-02-01T17:52:09.201Z,61.08
2023-02-01T17:54:37.697Z,61.40
2023-02-01T17:57:14.755Z,65.60
2023-02-01T17:59:42.536Z,74.18
2023-02-01T18:02:24.279Z,75.85
2023-02-01T18:04:52.653Z,78.05
2023-02-01T18:07:20.224Z,76.15
2023-02-01T18:09:47.743Z,63.88
2023-02-01T18:12:23.685Z,59.95
2023-02-01T18:14:51.384Z,57.67
2023-02-01T18:17:18.939Z,60.67
2023-02-01T18:19:46.460Z,55.90
2023-02-01T18:22:17.920Z,58.13
2023-02-01T18:24:45.464Z,63.47
2023-02-01T18:27:13.021Z,57.10
2023-02-01T18:29:40.535Z,60.65
2023-02-01T18:32:10.703Z,61.75
2023-02-01T18:34:38.212Z,58.05
2023-02-01T18:37:05.708Z,58.22
2023-02-01T18:39:33.227Z,60.22
2023-02-01T18:42:00.696Z,67.75
2023-02-01T18:44:28.186Z,60.85
2023-02-01T18:46:55.647Z,64.38
2023-02-01T18:49:23.097Z,65.82
2023-02-01T18:51:52.142Z,62.13
2023-02-01T18:54:20.111Z,59.97
2023-02-01T18:56:47.658Z,61.72
2023-02-01T18:59:17.378Z,58.38
2023-02-01T19:01:45.069Z,60.80
2023-02-01T19:04:20.331Z,61.33
2023-02-01T19:06:53.231Z,62.67
2023-02-01T19:09:20.741Z,72.35
2023-02-01T19:11:48.311Z,80.97
2023-02-01T19:14:15.781Z,77.93
2023-02-01T19:16:43.306Z,74.63
2023-02-01T19:19:10.731Z,74.50
2023-02-01T19:21:38.205Z,75.78
2023-02-01T19:24:06.076Z,80.63
2023-02-01T19:26:33.559Z,82.50
2023-02-01T19:29:01.629Z,80.53
2023-02-01T19:31:29.268Z,78.57
2023-02-01T19:33:56.910Z,80.63
2023-02-01T19:36:26.789Z,78.30
2023-02-01T19:38:54.262Z,76.68
2023-02-01T19:41:21.720Z,76.07
2023-02-01T19:43:49.141Z,76.15
2023-02-01T19:46:16.621Z,74.30
2023-02-01T19:48:44.170Z,75.85
2023-02-01T19:51:12.802Z,71.65
2023-02-01T19:53:40.300Z,74.00
2023-02-01T19:56:08.030Z,69.82
2023-02-01T19:58:35.532Z,72.90
2023-02-01T20:01:02.692Z,75.50
2023-02-01T20:03:30.185Z,76.25
2023-02-01T20:05:59.007Z,70.95
2023-02-01T20:08:26.521Z,75.15
2023-02-01T20:10:54.039Z,78.25
2023-02-01T20:13:21.486Z,74.57
2023-02-01T20:15:49.029Z,76.00
2023-02-01T20:18:16.563Z,73.13
2023-02-01T20:20:44.068Z,70.40
2023-02-01T20:23:11.626Z,68.45
2023-02-01T20:25:41.290Z,74.20
2023-02-01T20:28:08.953Z,69.68
2023-02-01T20:30:36.500Z,71.15
2023-02-01T20:33:04.059Z,76.40
2023-02-01T20:35:31.715Z,71.90
2023-02-01T20:38:01.798Z,67.75
2023-02-01T20:40:30.940Z,64.30
2023-02-01T20:42:58.827Z,70.82
2023-02-01T20:45:27.211Z,70.07
2023-02-01T20:47:54.784Z,65.57
2023-02-01T20:50:22.243Z,66.00
2023-02-01T20:52:49.772Z,67.10
2023-02-01T20:55:17.390Z,61.45
2023-02-01T20:57:44.949Z,70.10
2023-02-01T21:00:13.148Z,72.07
2023-02-01T21:02:40.748Z,63.47
2023-02-01T21:05:09.081Z,63.88
2023-02-01T21:07:37.894Z,68.00
2023-02-01T21:10:06.437Z,65.60
2023-02-01T21:12:34.024Z,62.10
2023-02-01T21:15:01.560Z,64.40
2023-02-01T21:17:31.627Z,65.38
2023-02-01T21:19:59.578Z,66.75
2023-02-01T21:22:27.043Z,65.07
2023-02-01T21:24:54.636Z,67.30
2023-02-01T21:27:22.227Z,66.68
2023-02-01T21:29:49.704Z,72.28
2023-02-01T21:32:17.311Z,70.43
2023-02-01T21:34:44.800Z,69.72
2023-02-01T21:37:12.272Z,76.28
2023-02-01T21:39:39.623Z,77.05
2023-02-01T21:42:18.251Z,70.90
2023-02-01T21:44:47.535Z,68.30
2023-02-01T21:47:17.409Z,78.90
2023-02-01T21:49:46.749Z,83.35
2023-02-01T21:52:18.050Z,78.68
2023-02-01T21:54:45.736Z,73.00
2023-02-01T21:57:13.345Z,74.10
2023-02-01T21:59:43.518Z,76.90
2023-02-01T22:02:16.200Z,75.18
2023-02-01T22:04:44.378Z,75.00
2023-02-01T22:07:12.357Z,71.32
2023-02-01T22:09:40.402Z,78.15
2023-02-01T22:12:09.844Z,81.22
2023-02-01T22:14:38.674Z,74.25
2023-02-01T22:17:06.555Z,75.53
2023-02-01T22:19:34.058Z,85.15
2023-02-01T22:22:01.679Z,77.82
2023-02-01T22:24:29.222Z,75.63
2023-02-01T22:26:56.660Z,73.82
2023-02-01T22:29:43.031Z,71.60
2023-02-01T22:32:13.216Z,71.72
2023-02-01T22:34:41.293Z,73.93
2023-02-01T22:37:09.837Z,72.90
2023-02-01T22:39:38.552Z,75.15
2023-02-01T22:42:06.428Z,74.88
2023-02-01T22:44:33.879Z,72.20
2023-02-01T22:47:01.399Z,71.93
2023-02-01T22:49:28.925Z,74.70
2023-02-01T22:51:56.574Z,70.68
2023-02-01T22:54:24.018Z,71.40
2023-02-01T22:56:51.512Z,77.47
2023-02-01T22:59:19.096Z,79.90
2023-02-01T23:01:46.558Z,78.53
2023-02-01T23:04:15.136Z,82.47
2023-02-01T23:06:42.652Z,84.78
2023-02-01T23:09:22.041Z,81.03
2023-02-01T23:11:49.990Z,74.30
2023-02-01T23:14:18.063Z,71.32
2023-02-01T23:16:46.944Z,71.22
2023-02-01T23:19:14.635Z,78.38
2023-02-01T23:21:42.573Z,75.13
2023-02-01T23:24:11.232Z,75.25
2023-02-01T23:26:39.041Z,78.47
2023-02-01T23:29:06.531Z,74.85
2023-02-01T23:31:35.797Z,74.68
2023-02-01T23:34:04.255Z,71.15
2023-02-01T23:36:33.879Z,71.93
2023-02-01T23:39:01.801Z,71.13
2023-02-01T23:41:30.187Z,70.90
2023-02-01T23:43:58.004Z,72.20
2023-02-01T23:46:34.035Z,68.10
2023-02-01T23:49:03.174Z,71.30
2023-02-01T23:51:30.961Z,70.60
2023-02-01T23:53:58.708Z,69.15
2023-02-01T23:56:33.311Z,69.60
2023-02-01T23:59:02.979Z,69.28
